Jepson Prairie Reserve, California Weather observations

Data are for 10 minute period ending at time listed.
 Day   Time   Solar   Ave.   Ave.  Ave.  Vector  Max.   Baro.   Total    
  of    of     Rad.   Air    Rel.  Wind   Wind   Wind  Press.  Precip.   
Year   Day            Temp.  Hum.  Speed  Dir.   Gust                    
2014   (PST)  Kw/m2    F      %     mph   deg.    mph    mb.     in.     
-------------------------------------------------------------------------
 273   10:10   0.64   68.2    67    8.6   287    12.3   1012.2    0.00 
 273   10:20   0.67   69.0    65    8.4   287    13.3   1012.2    0.00 
 273   10:30   0.64   69.6    64    9.2   306    15.5   1011.9    0.00 
 273   10:40   0.68   70.1    63   10.3   314    15.4   1011.9    0.00 
 273   10:50   0.70   70.9    61    9.2   288    12.9   1011.9    0.00 
 273   11:00   0.71   71.7    59    9.9   302    16.1   1011.5    0.00 
 273   11:10   0.71   72.1    57    9.7   311    15.2   1011.5    0.00 
 273   11:20   0.72   72.5    56   12.2   324    18.6   1011.5    0.00 
 273   11:30   0.72   73.3    55   10.6   314    16.2   1011.2    0.00 
 273   11:40   0.74   73.3    55   12.6   324    19.1   1011.2    0.00 
 273   11:50   0.74   73.8    54   13.2   324    19.6   1011.2    0.00 
 273   12:00   0.74   73.4    56   10.4   333    17.1   1011.2    0.00 
 273   12:10   0.73   73.9    56    8.3   330    16.4   1010.8    0.00 
 273   12:20   0.73   75.1    53   10.6   338    16.7   1010.8    0.00 
 273   12:30   0.72   74.9    53   10.1   326    16.9   1010.8    0.00 
 273   12:40   0.72   75.5    52    9.2   333    14.2   1010.5    0.00 
 273   12:50   0.71   75.8    52    8.8   319    14.5   1010.2    0.00 
 273   13:00   0.70   76.1    51    6.9   331    15.2   1009.8    0.00 
 273   13:10   0.69   77.1    49    9.8   333    17.9   1009.5    0.00 
 273   13:20   0.68   77.5    48    7.8   337    12.8   1009.5    0.00 
 273   13:30   0.66   77.8    47    7.8   330    14.4   1009.1    0.00 
 273   13:40   0.65   78.7    46   10.6   344    15.8   1009.1    0.00 
 273   13:50   0.63   78.8    46   11.4   329    17.5   1009.1    0.00 
 273   14:00   0.61   78.8    46   10.6   324    16.6   1008.8    0.00 
 273   14:10   0.59   79.1    45   10.1   334    15.9   1008.8    0.00 
 273   14:20   0.56   79.2    45   10.8   337    16.2   1008.8    0.00 
 273   14:30   0.55   79.4    44    9.5   323    15.7   1008.5    0.00 
 273   14:40   0.52   79.7    44    8.8   344    16.7   1008.5    0.00 
 273   14:50   0.50   80.4    42   11.1   322    17.2   1008.1    0.00 
 273   15:00   0.47   80.5    42   10.3   335    16.3   1008.1    0.00 
 273   15:10   0.44   80.8    42   11.4   336    17.9   1008.1    0.00 
 273   15:20   0.42   80.6    42   10.2   331    16.8   1007.8    0.00 
 273   15:30   0.39   81.4    41   11.2   332    15.4   1007.8    0.00 
 273   15:40   0.35   81.1    40   11.3   339    18.5   1007.8    0.00 
 273   15:50   0.33   81.1    40   11.5   338    16.2   1007.8    0.00 
 273   16:00   0.30   81.4    40   10.9   340    15.6   1007.5    0.00 
 273   16:10   0.27   81.3    40   11.3   340    14.4   1007.5    0.00 
 273   16:20   0.24   81.5    40   10.7   333    14.5   1007.5    0.00 
 273   16:30   0.21   81.5    40   11.0   339    13.8   1007.5    0.00 
 273   16:40   0.18   81.2    39   11.3   340    14.4   1007.5    0.00 
 273   16:50   0.14   81.1    39   10.5   339    13.5   1007.5    0.00 
 273   17:00   0.11   80.9    39   10.9   346    14.0   1007.5    0.00 
 273   17:10   0.08   80.5    40    9.3   344    12.9   1007.5    0.00 
 273   17:20   0.06   80.1    40    7.5   346    10.4   1007.5    0.00 
 273   17:30   0.04   79.2    42    6.8   352     8.8   1007.5    0.00 
 273   17:40   0.02   78.2    43    6.2   344     8.0   1007.5    0.00 
 273   17:50   0.01   76.2    46    4.2   285     7.2   1007.5    0.00 
 273   18:00   0.00   73.9    50    6.1   239     7.9   1007.8    0.00 
 273   18:10   0.00   72.7    54    7.7   225     9.9   1007.8    0.00 
 273   18:20   0.00   71.5    56    8.1   231    11.0   1007.8    0.00 
 273   18:30   0.00   70.3    58    7.0   226    12.8   1007.8    0.00 
 273   18:40   0.00   69.7    60    9.4   220    12.1   1007.8    0.00 
 273   18:50   0.00   69.2    61    8.9   223    10.7   1007.8    0.00 
 273   19:00   0.00   68.7    63    9.0   230    11.6   1008.1    0.00 
 273   19:10   0.00   67.9    64    8.7   229    10.5   1008.1    0.00 
 273   19:20   0.00   67.3    66    7.5   234    11.2   1008.1    0.00 
 273   19:30   0.00   67.2    66    9.4   233    13.7   1008.1    0.00 
 273   19:40   0.00   66.6    68    8.6   227    10.8   1008.1    0.00 
 273   19:50   0.00   65.6    69    7.3   233     8.6   1008.1    0.00 
 273   20:00   0.00   64.3    71    8.0   234     9.3   1008.1    0.00 
 273   20:10   0.00   63.6    73    8.1   237     9.1   1008.1    0.00 
 273   20:20   0.00   62.9    74    8.4   237     9.6   1008.1    0.00 
 273   20:30   0.00   62.3    75    7.9   238     8.5   1008.1    0.00 
 273   20:40   0.00   62.0    76    6.7   238     7.6   1008.1    0.00 
 273   20:50   0.00   60.9    77    4.6   204     6.9   1008.1    0.00 
 273   21:00   0.00   60.1    79    5.1   198     6.2   1008.1    0.00 
 273   21:10   0.00   60.1    78    6.6   221     7.4   1008.1    0.00 
 273   21:20   0.00   59.6    78    7.0   223     7.5   1008.1    0.00 
 273   21:30   0.00   58.8    80    6.6   212     8.0   1008.1    0.00 
 273   21:40   0.00   58.4    81    7.3   213     8.7   1008.1    0.00 
 273   21:50   0.00   58.1    81    7.5   226     8.5   1008.1    0.00 
 273   22:00   0.00   58.1    81    7.1   241     8.3   1008.1    0.00 
 273   22:10   0.00   58.8    77    6.1   288     9.0   1008.1    0.00 
 273   22:20   0.00   65.1    52   10.2   324    14.2   1008.1    0.00 
 273   22:30   0.00   68.7    41   12.3   329    17.0   1008.1    0.00 
 273   22:40   0.00   68.6    39   13.5   329    19.7   1008.5    0.00 
 273   22:50   0.00   69.3    36   15.2   322    20.6   1008.1    0.00 
 273   23:00   0.00   69.3    35   13.8   319    17.8   1008.5    0.00 
 273   23:10   0.00   68.8    35   12.0   322    15.4   1008.5    0.00 
 273   23:20   0.00   68.5    35    9.6   328    13.6   1008.5    0.00 
 273   23:30   0.00   67.3    37    8.2   322    12.0   1008.5    0.00 
 273   23:40   0.00   66.8    37    8.5   308    11.3   1008.5    0.00 
 273   23:50   0.00   67.5    36    7.7   298    13.9   1008.5    0.00 
 274    0:00   0.00   68.0    35    6.9   279     9.9   1008.5    0.00 
 274    0:10   0.00   66.5    36    4.6   264     9.5   1008.5    0.00 
 274    0:20   0.00   65.4    38    3.2   285     6.6   1008.8    0.00 
 274    0:30   0.00   66.6    36    6.6   294    10.9   1008.8    0.00 
 274    0:40   0.00   68.3    34   11.3   304    19.7   1008.8    0.00 
 274    0:50   0.00   69.4    33   15.3   313    22.9   1008.8    0.00 
 274    1:00   0.00   70.1    32   16.9   320    22.6   1008.5    0.00 
 274    1:10   0.00   70.2    32   18.4   319    28.3   1008.8    0.00 
 274    1:20   0.00   70.4    32   19.2   320    26.4   1008.8    0.00 
 274    1:30   0.00   70.4    32   22.2   318    33.2   1008.5    0.00 
 274    1:40   0.00   70.2    32   21.9   318    32.2   1008.5    0.00 
 274    1:50   0.00   70.3    31   23.3   320    32.9   1008.5    0.00 
 274    2:00   0.00   70.4    31   24.7   322    34.0   1008.1    0.00 
 274    2:10   0.00   70.1    31   27.1   324    37.4   1007.8    0.00 
 274    2:20   0.00   70.1    31   28.4   323    36.2   1007.8    0.00 
 274    2:30   0.00   69.9    31   25.9   323    35.1   1008.1    0.00 
 274    2:40   0.00   69.6    31   25.5   324    33.8   1008.1    0.00 
 274    2:50   0.00   69.3    32   26.4   326    34.2   1008.1    0.00 
 274    3:00   0.00   68.9    33   26.5   327    33.8   1008.5    0.00 
 274    3:10   0.00   68.7    33   25.0   326    31.1   1008.5    0.00 
 274    3:20   0.00   68.6    33   24.2   324    31.0   1008.5    0.00 
 274    3:30   0.00   68.3    34   23.0   325    29.9   1008.5    0.00 
 274    3:40   0.00   68.2    34   22.9   326    32.0   1008.5    0.00 
 274    3:50   0.00   68.0    34   22.1   329    32.4   1008.8    0.00 
 274    4:00   0.00   67.9    34   22.6   326    29.4   1008.8    0.00 
 274    4:10   0.00   67.9    34   23.9   326    34.2   1008.8    0.00 
 274    4:20   0.00   67.6    34   24.6   327    30.7   1008.8    0.00 
 274    4:30   0.00   67.5    35   26.0   328    34.3   1008.8    0.00 
 274    4:40   0.00   67.5    34   26.6   329    34.3   1008.8    0.00 
 274    4:50   0.00   67.5    34   26.4   330    38.2   1008.8    0.00 
 274    5:00   0.00   67.2    35   25.5   330    34.4   1009.1    0.00 
 274    5:10   0.00   67.1    35   25.1   329    32.8   1009.1    0.00 
 274    5:20   0.00   67.0    35   24.3   327    35.7   1009.5    0.00 
 274    5:30   0.00   67.1    34   24.5   326    31.6   1009.5    0.00 
 274    5:40   0.00   66.9    35   24.8   328    36.2   1009.5    0.00 
 274    5:50   0.00   66.9    35   26.2   328    35.4   1009.5    0.00 
 274    6:00   0.00   66.7    35   27.1   327    35.0   1009.8    0.00 
 274    6:10   0.01   66.9    34   28.9   329    39.7   1009.8    0.00 
 274    6:20   0.02   66.8    34   27.3   329    35.4   1009.8    0.00 
 274    6:30   0.04   66.9    34   25.7   326    36.5   1010.2    0.00 
 274    6:40   0.07   66.9    35   25.6   325    32.7   1010.2    0.00 
 274    6:50   0.10   67.1    34   26.1   326    33.5   1010.2    0.00 
 274    7:00   0.13   67.6    34   28.7   327    36.7   1010.2    0.00 
 274    7:10   0.16   68.2    33   26.5   329    35.7   1010.5    0.00 
 274    7:20   0.20   68.6    33   27.2   328    35.4   1010.5    0.00 
 274    7:30   0.23   69.0    32   29.7   328    40.6   1010.2    0.00 
 274    7:40   0.26   69.3    32   28.8   325    37.0   1010.5    0.00 
 274    7:50   0.29   69.7    32   25.8   325    34.1   1010.8    0.00 
 274    8:00   0.33   70.1    32   24.6   323    34.2   1010.8    0.00 
 274    8:10   0.36   70.4    32   25.3   322    32.2   1010.8    0.00 
 274    8:20   0.39   71.0    31   22.7   322    31.2   1011.2    0.00 
 274    8:30   0.42   71.2    31   25.5   324    33.1   1011.2    0.00 
 274    8:40   0.45   71.6    31   26.3   326    38.2   1011.2    0.00 
 274    8:50   0.48   72.4    30   25.2   327    32.9   1011.2    0.00 
 274    9:00   0.51   73.0    29   26.6   330    34.3   1011.2    0.00 
 274    9:10   0.54   73.5    29   24.8   329    32.1   1011.2    0.00 
 274    9:20   0.56   73.9    28   27.2   322    34.6   1011.2    0.00 
 274    9:30   0.59   74.3    28   24.2   327    31.1   1011.2    0.00 
 274    9:40   0.61   74.9    26   27.5   326    35.6   1011.2    0.00 
 274    9:50   0.63   75.4    27   24.0   326    33.5   1011.2    0.00 
 274   10:00   0.65   75.8    26   25.6   327    33.0   1010.8    0.00 

Return to Jepson Prairie Reserve graphs page.


Western Regional Climate Center,wrcc@dri.edu